Aérodrome :
LOGIN :

S'inscrire | Disclaimer

   EN    FR    IT 

 










Légende :    VFR   VFR Marginal   IFR   IFR Intensif   IFR Très Intensif
Visi : 
Plafond : 
>= 8 km
>= 3000ft
5 à 8 km
1000 à 3000 ft
1500m à 5 km
500 à 1000 ft
800 à 1500m
200 à 500 ft
< 800m
< 200 ft
Symboles :   Orages  Brouillard  Fortes neiges  Fortes précipitations  Vent > 20 kt
SIGMETs :   Divers  Orages  Givrage  Turbulence  Onde Orograph.  Cendres Volcan.






- Altitude de l'aérodrome : 499 ft
- Code IATA : TLS


LFBO - Toulouse / Blagnac

DERNIER METAR :
  • 262300Z AUTO 17004KT 4300 BR NSC 04/04 Q1022 TEMPO 0300 BECMG VV///

METARs EXPIRÉS :
  • 262230Z AUTO 16004KT 2600 1300 R14R/P2000 R32L/1600D R14L/P2000 R32R/0900U BR NSC 05/04 Q1021 TEMPO 0300 BECMG VV///
  • 262200Z AUTO 19003KT 7000 2400 NSC 05/05 Q1022 TEMPO 0300 BECMG VV///
  • 262130Z AUTO 20003KT 7000 NSC 06/05 Q1022 TEMPO 0300 BECMG VV///
  • 262100Z AUTO 19003KT 6000 NSC 06/05 Q1022 TEMPO 0300 BECMG VV///
  • 262030Z AUTO VRB02KT CAVOK 07/06 Q1022 TEMPO 0300 BECMG VV///

TAF TAF LFBO
Valide du 26 à 18h jusqu'au 28 à 00h UTC


261700Z 2618/2724 16004KT CAVOK
BECMG 2621/2623 0600 FG VV///
PROB30
TEMPO 2622/2706 0300
BECMG 2706/2708 4000 BR BKN003
BECMG 2708/2710 CAVOK
BECMG 2714/2716 18010KT
PROB30
TEMPO 2716/2721 -RA BKN010
ATIS : +33 5 62 74 66 36



MET'MAP, la Météo Aéronautique d'un coup d'oeil ! - Copyright ORBIFLY Décembre 2007 - Disclaimer

ORBIFLY MET'MAP TEAM :

Programmation & Développement : Alexandra Zaïnal
Sur une idée originale de : Baudouin d'Aumeries
Assistance à la programmation : Marc-Olivier Méhu
Soutien technique & logistique : Manuel Goepfert

Contact : metmap@orbifly.com




SOURCES & CREDITS :

   NOAA